アンカレッジ/テッド・スティーブンス の空港の天気 - METARとTAF

テッド・スティーブンス・アンカレッジ国際空港 ( PANC / ANC ) - アメリカ アラスカ州アンカレッジ
飛行場実況気象(Metar)
観測時間06/25 04:53 AKDT (06/25 12:53 UTC)
風向・風速静穏 0m/s
視程10km以上
天気現象
全天の8割程度の雲 雲底高度 1430m
全天の8割程度の雲 雲底高度 1680m
全天の8割程度の雲 雲底高度 2290m
気温10.6℃
湿度89%
気圧1011.9hPa
METARPANC 251253Z 00000KT 10SM BKN047 BKN055 BKN075 11/09 A2988 RMK AO2 SLP119 T01060089
過去の天気等 Google飛行場航空写真 Wunderground天気予報

過去48時間のMETAR

飛行場予報(TAF)
発表時間: 6/25 03:33 AKDT (6/25 11:33 UTC)
予報対象時間: 25日4時 AKDT ~ 26日10時 AKDT
風向・風速不定 3m/s
視程10km以上
全天の4割程度の雲 雲底高度 1370m
全天の8割程度の雲 雲底高度 2130m
25日4時 AKDT ~ 25日7時 AKDT に一時的に
全天の8割程度の雲 雲底高度 1370m
25日13時 AKDT から
風向・風速西 4m/s
視程10km以上
全天の4割程度の雲 雲底高度 1370m
全天の8割程度の雲 雲底高度 2130m
25日16時 AKDT から
風向・風速南 6m/s 瞬間風速 10m/s
視程10km以上
天気現象周辺でしゅう雨
全天の8割程度の雲 雲底高度 1370m
PANC 251133Z 2512/2618 VRB05KT P6SM SCT045 BKN070
TEMPO 2512/2515 BKN045
FM252100 26007KT P6SM SCT045 BKN070
FM260000 18012G20KT P6SM VCSH BKN045